sensor_id;sensor_type;location;lat;lon;timestamp;P1;durP1;ratioP1;P2;durP2;ratioP2
69256;SDS011;56376;53.356;-1.748;2023-02-28T00:01:31;6.17;;;4.57;;
69256;SDS011;56376;53.356;-1.748;2023-02-28T00:03:57;5.07;;;4.57;;
69256;SDS011;56376;53.356;-1.748;2023-02-28T00:06:22;5.83;;;4.63;;
69256;SDS011;56376;53.356;-1.748;2023-02-28T00:08:49;4.93;;;4.10;;
69256;SDS011;56376;53.356;-1.748;2023-02-28T00:11:15;8.90;;;5.30;;
69256;SDS011;56376;53.356;-1.748;2023-02-28T00:13:42;6.00;;;4.27;;
69256;SDS011;56376;53.356;-1.748;2023-02-28T00:16:17;4.07;;;3.20;;
69256;SDS011;56376;53.356;-1.748;2023-02-28T00:18:45;4.67;;;3.00;;
69256;SDS011;56376;53.356;-1.748;2023-02-28T00:21:12;8.20;;;4.70;;
69256;SDS011;56376;53.356;-1.748;2023-02-28T00:23:38;6.77;;;3.90;;
69256;SDS011;56376;53.356;-1.748;2023-02-28T00:26:03;3.87;;;3.47;;
69256;SDS011;56376;53.356;-1.748;2023-02-28T00:28:29;4.33;;;3.70;;
69256;SDS011;56376;53.356;-1.748;2023-02-28T00:30:55;7.13;;;3.87;;
69256;SDS011;56376;53.356;-1.748;2023-02-28T00:33:22;5.13;;;4.50;;
69256;SDS011;56376;53.356;-1.748;2023-02-28T00:35:47;4.60;;;3.80;;
69256;SDS011;56376;53.356;-1.748;2023-02-28T00:38:13;5.13;;;3.77;;
69256;SDS011;56376;53.356;-1.748;2023-02-28T00:40:40;5.47;;;4.67;;
69256;SDS011;56376;53.356;-1.748;2023-02-28T00:43:05;6.73;;;5.40;;
69256;SDS011;56376;53.356;-1.748;2023-02-28T00:45:31;6.33;;;5.03;;
69256;SDS011;56376;53.356;-1.748;2023-02-28T00:47:56;5.87;;;5.27;;
69256;SDS011;56376;53.356;-1.748;2023-02-28T00:50:21;5.40;;;4.90;;
69256;SDS011;56376;53.356;-1.748;2023-02-28T00:52:47;5.90;;;4.80;;
69256;SDS011;56376;53.356;-1.748;2023-02-28T00:55:13;5.90;;;5.30;;
69256;SDS011;56376;53.356;-1.748;2023-02-28T00:57:38;5.67;;;5.07;;
69256;SDS011;56376;53.356;-1.748;2023-02-28T01:00:04;5.73;;;5.13;;
69256;SDS011;56376;53.356;-1.748;2023-02-28T01:02:30;5.07;;;4.57;;
69256;SDS011;56376;53.356;-1.748;2023-02-28T01:04:55;6.37;;;4.97;;
69256;SDS011;56376;53.356;-1.748;2023-02-28T01:07:22;5.97;;;4.87;;
69256;SDS011;56376;53.356;-1.748;2023-02-28T01:09:48;5.07;;;4.57;;
69256;SDS011;56376;53.356;-1.748;2023-02-28T01:12:14;8.03;;;5.73;;
69256;SDS011;56376;53.356;-1.748;2023-02-28T01:14:40;8.53;;;4.93;;
69256;SDS011;56376;53.356;-1.748;2023-02-28T01:17:05;7.57;;;6.07;;
69256;SDS011;56376;53.356;-1.748;2023-02-28T01:19:31;6.47;;;5.83;;
69256;SDS011;56376;53.356;-1.748;2023-02-28T01:21:57;6.53;;;5.57;;
69256;SDS011;56376;53.356;-1.748;2023-02-28T01:24:25;6.37;;;5.57;;
69256;SDS011;56376;53.356;-1.748;2023-02-28T01:26:51;6.80;;;5.80;;
69256;SDS011;56376;53.356;-1.748;2023-02-28T01:29:16;7.70;;;6.77;;
69256;SDS011;56376;53.356;-1.748;2023-02-28T01:31:41;8.00;;;6.47;;
69256;SDS011;56376;53.356;-1.748;2023-02-28T01:34:07;8.40;;;6.40;;
69256;SDS011;56376;53.356;-1.748;2023-02-28T01:36:32;6.67;;;5.97;;
69256;SDS011;56376;53.356;-1.748;2023-02-28T01:38:58;7.90;;;6.60;;
69256;SDS011;56376;53.356;-1.748;2023-02-28T01:41:25;6.77;;;6.00;;
69256;SDS011;56376;53.356;-1.748;2023-02-28T01:46:18;7.93;;;6.00;;
69256;SDS011;56376;53.356;-1.748;2023-02-28T01:49:07;5.73;;;4.90;;
69256;SDS011;56376;53.356;-1.748;2023-02-28T01:51:42;7.80;;;5.83;;
69256;SDS011;56376;53.356;-1.748;2023-02-28T01:54:11;7.93;;;5.03;;
69256;SDS011;56376;53.356;-1.748;2023-02-28T01:56:41;5.97;;;5.00;;
69256;SDS011;56376;53.356;-1.748;2023-02-28T01:59:10;4.90;;;4.30;;
69256;SDS011;56376;53.356;-1.748;2023-02-28T02:01:39;5.80;;;4.30;;
69256;SDS011;56376;53.356;-1.748;2023-02-28T02:04:04;4.23;;;3.83;;
69256;SDS011;56376;53.356;-1.748;2023-02-28T02:06:32;4.23;;;3.83;;
69256;SDS011;56376;53.356;-1.748;2023-02-28T02:09:09;3.73;;;3.43;;
69256;SDS011;56376;53.356;-1.748;2023-02-28T02:11:35;4.07;;;3.07;;
69256;SDS011;56376;53.356;-1.748;2023-02-28T02:19:15;3.27;;;2.40;;
69256;SDS011;56376;53.356;-1.748;2023-02-28T02:40:42;3.07;;;2.20;;
69256;SDS011;56376;53.356;-1.748;2023-02-28T02:45:54;4.50;;;3.03;;
69256;SDS011;56376;53.356;-1.748;2023-02-28T02:48:25;4.20;;;3.23;;
69256;SDS011;56376;53.356;-1.748;2023-02-28T02:50:55;4.27;;;3.10;;
69256;SDS011;56376;53.356;-1.748;2023-02-28T02:53:30;2.63;;;2.20;;
69256;SDS011;56376;53.356;-1.748;2023-02-28T02:56:00;2.30;;;2.10;;
69256;SDS011;56376;53.356;-1.748;2023-02-28T02:58:29;2.60;;;2.40;;
69256;SDS011;56376;53.356;-1.748;2023-02-28T03:01:06;2.37;;;2.17;;
69256;SDS011;56376;53.356;-1.748;2023-02-28T03:03:35;2.17;;;1.77;;
69256;SDS011;56376;53.356;-1.748;2023-02-28T03:06:00;2.30;;;2.10;;
69256;SDS011;56376;53.356;-1.748;2023-02-28T03:08:28;2.40;;;2.20;;
69256;SDS011;56376;53.356;-1.748;2023-02-28T03:10:59;2.97;;;2.50;;
69256;SDS011;56376;53.356;-1.748;2023-02-28T03:23:56;2.50;;;2.30;;
69256;SDS011;56376;53.356;-1.748;2023-02-28T03:26:26;3.87;;;2.53;;
69256;SDS011;56376;53.356;-1.748;2023-02-28T03:31:44;3.30;;;2.03;;
69256;SDS011;56376;53.356;-1.748;2023-02-28T03:34:36;2.47;;;1.90;;
69256;SDS011;56376;53.356;-1.748;2023-02-28T03:37:07;3.17;;;2.30;;
69256;SDS011;56376;53.356;-1.748;2023-02-28T03:39:37;3.17;;;2.00;;
69256;SDS011;56376;53.356;-1.748;2023-02-28T03:42:42;2.10;;;1.70;;
69256;SDS011;56376;53.356;-1.748;2023-02-28T03:45:05;1.70;;;1.60;;
69256;SDS011;56376;53.356;-1.748;2023-02-28T03:47:49;1.60;;;1.50;;
69256;SDS011;56376;53.356;-1.748;2023-02-28T03:50:20;2.27;;;1.97;;
69256;SDS011;56376;53.356;-1.748;2023-02-28T03:53:01;1.93;;;1.60;;
69256;SDS011;56376;53.356;-1.748;2023-02-28T03:55:37;1.40;;;1.30;;
69256;SDS011;56376;53.356;-1.748;2023-02-28T03:58:27;1.20;;;1.10;;
69256;SDS011;56376;53.356;-1.748;2023-02-28T04:01:04;1.20;;;1.10;;
69256;SDS011;56376;53.356;-1.748;2023-02-28T04:03:34;1.33;;;1.23;;
69256;SDS011;56376;53.356;-1.748;2023-02-28T04:06:01;1.20;;;1.10;;
69256;SDS011;56376;53.356;-1.748;2023-02-28T04:08:27;1.20;;;1.10;;
69256;SDS011;56376;53.356;-1.748;2023-02-28T04:10:56;0.90;;;0.90;;
69256;SDS011;56376;53.356;-1.748;2023-02-28T04:13:26;0.83;;;0.83;;
69256;SDS011;56376;53.356;-1.748;2023-02-28T04:15:51;0.70;;;0.70;;
69256;SDS011;56376;53.356;-1.748;2023-02-28T04:18:17;0.90;;;0.90;;
69256;SDS011;56376;53.356;-1.748;2023-02-28T04:20:42;0.73;;;0.73;;
69256;SDS011;56376;53.356;-1.748;2023-02-28T04:23:07;0.73;;;0.70;;
69256;SDS011;56376;53.356;-1.748;2023-02-28T04:25:33;0.70;;;0.70;;
69256;SDS011;56376;53.356;-1.748;2023-02-28T04:27:58;1.03;;;0.93;;
69256;SDS011;56376;53.356;-1.748;2023-02-28T04:30:23;0.87;;;0.83;;
69256;SDS011;56376;53.356;-1.748;2023-02-28T04:32:49;1.17;;;0.90;;
69256;SDS011;56376;53.356;-1.748;2023-02-28T04:35:14;0.93;;;0.83;;
69256;SDS011;56376;53.356;-1.748;2023-02-28T04:37:40;1.30;;;1.20;;
69256;SDS011;56376;53.356;-1.748;2023-02-28T04:40:06;1.67;;;1.57;;
69256;SDS011;56376;53.356;-1.748;2023-02-28T04:42:32;1.70;;;1.60;;
69256;SDS011;56376;53.356;-1.748;2023-02-28T04:45:01;1.43;;;1.30;;
69256;SDS011;56376;53.356;-1.748;2023-02-28T04:47:27;2.33;;;1.70;;
69256;SDS011;56376;53.356;-1.748;2023-02-28T04:49:53;1.70;;;1.40;;
69256;SDS011;56376;53.356;-1.748;2023-02-28T04:52:18;1.80;;;1.53;;
69256;SDS011;56376;53.356;-1.748;2023-02-28T04:54:44;1.97;;;1.53;;
69256;SDS011;56376;53.356;-1.748;2023-02-28T04:57:10;1.90;;;1.57;;
69256;SDS011;56376;53.356;-1.748;2023-02-28T04:59:35;2.50;;;2.03;;
69256;SDS011;56376;53.356;-1.748;2023-02-28T05:02:01;2.47;;;1.70;;
69256;SDS011;56376;53.356;-1.748;2023-02-28T05:04:31;1.73;;;1.53;;
69256;SDS011;56376;53.356;-1.748;2023-02-28T05:06:59;2.00;;;1.50;;
69256;SDS011;56376;53.356;-1.748;2023-02-28T05:09:25;1.50;;;1.40;;
69256;SDS011;56376;53.356;-1.748;2023-02-28T05:11:50;2.73;;;1.50;;
69256;SDS011;56376;53.356;-1.748;2023-02-28T05:14:15;1.80;;;1.40;;
69256;SDS011;56376;53.356;-1.748;2023-02-28T05:16:41;1.47;;;1.37;;
69256;SDS011;56376;53.356;-1.748;2023-02-28T05:19:06;2.67;;;1.50;;
69256;SDS011;56376;53.356;-1.748;2023-02-28T05:21:36;2.77;;;1.40;;
69256;SDS011;56376;53.356;-1.748;2023-02-28T05:24:04;1.53;;;1.30;;
69256;SDS011;56376;53.356;-1.748;2023-02-28T05:26:34;1.40;;;1.27;;
69256;SDS011;56376;53.356;-1.748;2023-02-28T05:29:01;1.77;;;1.47;;
69256;SDS011;56376;53.356;-1.748;2023-02-28T05:31:26;1.20;;;1.10;;
69256;SDS011;56376;53.356;-1.748;2023-02-28T05:33:52;1.83;;;1.40;;
69256;SDS011;56376;53.356;-1.748;2023-02-28T05:36:17;1.73;;;1.40;;
69256;SDS011;56376;53.356;-1.748;2023-02-28T05:38:45;2.17;;;1.80;;
69256;SDS011;56376;53.356;-1.748;2023-02-28T05:41:11;2.70;;;2.07;;
69256;SDS011;56376;53.356;-1.748;2023-02-28T05:43:37;2.60;;;2.10;;
69256;SDS011;56376;53.356;-1.748;2023-02-28T05:46:06;2.20;;;1.77;;
69256;SDS011;56376;53.356;-1.748;2023-02-28T05:48:34;1.87;;;1.50;;
69256;SDS011;56376;53.356;-1.748;2023-02-28T05:51:00;2.10;;;1.90;;
69256;SDS011;56376;53.356;-1.748;2023-02-28T05:53:27;2.67;;;2.10;;
69256;SDS011;56376;53.356;-1.748;2023-02-28T05:55:53;4.50;;;2.67;;
69256;SDS011;56376;53.356;-1.748;2023-02-28T05:58:18;3.50;;;2.30;;
69256;SDS011;56376;53.356;-1.748;2023-02-28T06:00:44;3.03;;;1.93;;
69256;SDS011;56376;53.356;-1.748;2023-02-28T06:03:10;2.57;;;1.93;;
69256;SDS011;56376;53.356;-1.748;2023-02-28T06:05:35;3.03;;;2.13;;
69256;SDS011;56376;53.356;-1.748;2023-02-28T06:08:01;2.70;;;2.00;;
69256;SDS011;56376;53.356;-1.748;2023-02-28T06:10:26;2.90;;;1.97;;
69256;SDS011;56376;53.356;-1.748;2023-02-28T06:12:52;2.93;;;2.10;;
69256;SDS011;56376;53.356;-1.748;2023-02-28T06:15:17;3.60;;;2.03;;
69256;SDS011;56376;53.356;-1.748;2023-02-28T06:17:43;2.40;;;1.90;;
69256;SDS011;56376;53.356;-1.748;2023-02-28T06:20:09;2.30;;;1.70;;
69256;SDS011;56376;53.356;-1.748;2023-02-28T06:22:37;2.10;;;1.67;;
69256;SDS011;56376;53.356;-1.748;2023-02-28T06:25:04;2.07;;;1.70;;
69256;SDS011;56376;53.356;-1.748;2023-02-28T06:27:31;2.23;;;1.70;;
69256;SDS011;56376;53.356;-1.748;2023-02-28T06:29:58;3.43;;;1.87;;
69256;SDS011;56376;53.356;-1.748;2023-02-28T06:32:23;1.70;;;1.50;;
69256;SDS011;56376;53.356;-1.748;2023-02-28T06:34:49;1.47;;;1.30;;
69256;SDS011;56376;53.356;-1.748;2023-02-28T06:37:15;2.50;;;1.80;;
69256;SDS011;56376;53.356;-1.748;2023-02-28T06:39:41;1.60;;;1.30;;
69256;SDS011;56376;53.356;-1.748;2023-02-28T06:42:06;2.37;;;1.50;;
69256;SDS011;56376;53.356;-1.748;2023-02-28T06:44:32;3.03;;;1.90;;
69256;SDS011;56376;53.356;-1.748;2023-02-28T06:47:00;2.40;;;1.70;;
69256;SDS011;56376;53.356;-1.748;2023-02-28T06:49:30;2.40;;;1.70;;
69256;SDS011;56376;53.356;-1.748;2023-02-28T06:51:57;2.03;;;1.73;;
69256;SDS011;56376;53.356;-1.748;2023-02-28T06:54:22;1.90;;;1.30;;
69256;SDS011;56376;53.356;-1.748;2023-02-28T06:56:48;1.93;;;1.43;;
69256;SDS011;56376;53.356;-1.748;2023-02-28T06:59:13;2.83;;;1.97;;
69256;SDS011;56376;53.356;-1.748;2023-02-28T07:01:39;2.03;;;1.80;;
69256;SDS011;56376;53.356;-1.748;2023-02-28T07:04:05;2.50;;;1.77;;
69256;SDS011;56376;53.356;-1.748;2023-02-28T07:06:31;2.13;;;1.67;;
69256;SDS011;56376;53.356;-1.748;2023-02-28T07:08:56;2.40;;;1.60;;
69256;SDS011;56376;53.356;-1.748;2023-02-28T07:11:23;2.20;;;1.90;;
69256;SDS011;56376;53.356;-1.748;2023-02-28T07:13:51;2.13;;;1.70;;
69256;SDS011;56376;53.356;-1.748;2023-02-28T07:16:17;2.27;;;1.80;;
69256;SDS011;56376;53.356;-1.748;2023-02-28T07:18:43;3.63;;;2.70;;
69256;SDS011;56376;53.356;-1.748;2023-02-28T07:21:09;2.30;;;2.10;;
69256;SDS011;56376;53.356;-1.748;2023-02-28T07:23:35;2.83;;;2.10;;
69256;SDS011;56376;53.356;-1.748;2023-02-28T07:26:03;3.80;;;2.77;;
69256;SDS011;56376;53.356;-1.748;2023-02-28T07:28:29;4.27;;;2.63;;
69256;SDS011;56376;53.356;-1.748;2023-02-28T07:30:55;4.00;;;3.40;;
69256;SDS011;56376;53.356;-1.748;2023-02-28T07:33:20;4.97;;;3.17;;
69256;SDS011;56376;53.356;-1.748;2023-02-28T07:35:45;4.83;;;3.53;;
69256;SDS011;56376;53.356;-1.748;2023-02-28T07:38:11;4.33;;;3.10;;
69256;SDS011;56376;53.356;-1.748;2023-02-28T07:40:38;3.43;;;3.13;;
69256;SDS011;56376;53.356;-1.748;2023-02-28T07:43:04;5.87;;;4.33;;
69256;SDS011;56376;53.356;-1.748;2023-02-28T07:45:30;6.40;;;4.60;;
69256;SDS011;56376;53.356;-1.748;2023-02-28T07:47:57;5.73;;;3.90;;
69256;SDS011;56376;53.356;-1.748;2023-02-28T07:50:23;4.83;;;3.40;;
69256;SDS011;56376;53.356;-1.748;2023-02-28T07:52:48;4.33;;;3.70;;
69256;SDS011;56376;53.356;-1.748;2023-02-28T07:55:14;5.10;;;3.50;;
69256;SDS011;56376;53.356;-1.748;2023-02-28T07:57:40;3.97;;;3.40;;
69256;SDS011;56376;53.356;-1.748;2023-02-28T08:00:07;3.87;;;3.00;;
69256;SDS011;56376;53.356;-1.748;2023-02-28T08:02:37;3.57;;;3.20;;
69256;SDS011;56376;53.356;-1.748;2023-02-28T08:05:03;3.90;;;3.03;;
69256;SDS011;56376;53.356;-1.748;2023-02-28T08:07:29;4.07;;;2.50;;
69256;SDS011;56376;53.356;-1.748;2023-02-28T08:09:54;2.93;;;2.50;;
69256;SDS011;56376;53.356;-1.748;2023-02-28T08:12:20;3.73;;;2.70;;
69256;SDS011;56376;53.356;-1.748;2023-02-28T08:14:45;6.33;;;2.73;;
69256;SDS011;56376;53.356;-1.748;2023-02-28T08:17:11;3.83;;;2.47;;
69256;SDS011;56376;53.356;-1.748;2023-02-28T08:19:36;10.60;;;3.20;;
69256;SDS011;56376;53.356;-1.748;2023-02-28T08:22:02;3.77;;;3.00;;
69256;SDS011;56376;53.356;-1.748;2023-02-28T08:24:28;7.47;;;5.20;;
69256;SDS011;56376;53.356;-1.748;2023-02-28T08:26:53;6.20;;;3.90;;
69256;SDS011;56376;53.356;-1.748;2023-02-28T08:29:19;5.67;;;4.67;;
69256;SDS011;56376;53.356;-1.748;2023-02-28T08:31:44;5.90;;;4.07;;
69256;SDS011;56376;53.356;-1.748;2023-02-28T08:34:11;4.57;;;3.97;;
69256;SDS011;56376;53.356;-1.748;2023-02-28T08:36:38;3.77;;;2.93;;
69256;SDS011;56376;53.356;-1.748;2023-02-28T08:39:04;5.60;;;3.00;;
69256;SDS011;56376;53.356;-1.748;2023-02-28T08:41:30;6.23;;;3.20;;
69256;SDS011;56376;53.356;-1.748;2023-02-28T08:43:56;4.73;;;3.53;;
69256;SDS011;56376;53.356;-1.748;2023-02-28T08:46:22;6.47;;;2.80;;
69256;SDS011;56376;53.356;-1.748;2023-02-28T08:48:51;4.70;;;3.50;;
69256;SDS011;56376;53.356;-1.748;2023-02-28T08:51:17;5.17;;;2.93;;
69256;SDS011;56376;53.356;-1.748;2023-02-28T08:53:46;5.00;;;2.50;;
69256;SDS011;56376;53.356;-1.748;2023-02-28T08:56:14;4.53;;;2.47;;
69256;SDS011;56376;53.356;-1.748;2023-02-28T08:58:41;4.27;;;2.90;;
69256;SDS011;56376;53.356;-1.748;2023-02-28T09:01:15;4.30;;;2.53;;
69256;SDS011;56376;53.356;-1.748;2023-02-28T09:03:41;5.30;;;3.23;;
69256;SDS011;56376;53.356;-1.748;2023-02-28T09:06:07;3.23;;;2.70;;
69256;SDS011;56376;53.356;-1.748;2023-02-28T09:08:33;5.33;;;2.80;;
69256;SDS011;56376;53.356;-1.748;2023-02-28T09:10:59;3.77;;;2.53;;
69256;SDS011;56376;53.356;-1.748;2023-02-28T09:13:27;3.30;;;2.63;;
69256;SDS011;56376;53.356;-1.748;2023-02-28T09:15:53;3.10;;;2.53;;
69256;SDS011;56376;53.356;-1.748;2023-02-28T09:18:22;2.37;;;2.00;;
69256;SDS011;56376;53.356;-1.748;2023-02-28T09:20:47;3.73;;;2.20;;
69256;SDS011;56376;53.356;-1.748;2023-02-28T09:23:13;3.03;;;2.10;;
69256;SDS011;56376;53.356;-1.748;2023-02-28T09:25:44;2.23;;;1.60;;
69256;SDS011;56376;53.356;-1.748;2023-02-28T09:28:12;2.23;;;1.77;;
69256;SDS011;56376;53.356;-1.748;2023-02-28T09:30:37;1.83;;;1.50;;
69256;SDS011;56376;53.356;-1.748;2023-02-28T09:33:02;2.47;;;1.60;;
69256;SDS011;56376;53.356;-1.748;2023-02-28T09:35:28;5.03;;;1.67;;
69256;SDS011;56376;53.356;-1.748;2023-02-28T09:37:55;4.83;;;2.97;;
69256;SDS011;56376;53.356;-1.748;2023-02-28T09:40:22;2.73;;;1.57;;
69256;SDS011;56376;53.356;-1.748;2023-02-28T09:42:53;2.73;;;1.70;;
69256;SDS011;56376;53.356;-1.748;2023-02-28T09:45:24;2.97;;;1.57;;
69256;SDS011;56376;53.356;-1.748;2023-02-28T09:50:33;2.47;;;1.20;;
69256;SDS011;56376;53.356;-1.748;2023-02-28T09:53:03;4.03;;;2.17;;
69256;SDS011;56376;53.356;-1.748;2023-02-28T09:55:43;2.42;;;1.40;;
69256;SDS011;56376;53.356;-1.748;2023-02-28T09:58:24;2.23;;;1.10;;
69256;SDS011;56376;53.356;-1.748;2023-02-28T10:03:40;1.37;;;1.20;;
69256;SDS011;56376;53.356;-1.748;2023-02-28T10:06:13;1.43;;;1.03;;
69256;SDS011;56376;53.356;-1.748;2023-02-28T10:09:43;1.37;;;1.20;;
69256;SDS011;56376;53.356;-1.748;2023-02-28T10:11:53;1.53;;;1.10;;
69256;SDS011;56376;53.356;-1.748;2023-02-28T10:14:26;1.30;;;1.20;;
69256;SDS011;56376;53.356;-1.748;2023-02-28T10:19:49;1.57;;;1.20;;
69256;SDS011;56376;53.356;-1.748;2023-02-28T10:22:29;1.87;;;1.30;;
69256;SDS011;56376;53.356;-1.748;2023-02-28T10:25:05;1.93;;;1.47;;
69256;SDS011;56376;53.356;-1.748;2023-02-28T10:27:49;2.60;;;1.43;;
69256;SDS011;56376;53.356;-1.748;2023-02-28T10:30:18;3.00;;;1.40;;
69256;SDS011;56376;53.356;-1.748;2023-02-28T10:32:47;1.70;;;1.30;;
69256;SDS011;56376;53.356;-1.748;2023-02-28T10:37:45;2.07;;;1.47;;
69256;SDS011;56376;53.356;-1.748;2023-02-28T10:43:03;1.80;;;1.23;;
69256;SDS011;56376;53.356;-1.748;2023-02-28T10:45:37;1.63;;;1.50;;
69256;SDS011;56376;53.356;-1.748;2023-02-28T10:50:37;2.30;;;1.40;;
69256;SDS011;56376;53.356;-1.748;2023-02-28T10:53:22;1.87;;;1.47;;
69256;SDS011;56376;53.356;-1.748;2023-02-28T10:58:27;1.80;;;1.60;;
69256;SDS011;56376;53.356;-1.748;2023-02-28T11:01:10;1.73;;;1.40;;
69256;SDS011;56376;53.356;-1.748;2023-02-28T11:03:39;4.90;;;1.60;;
69256;SDS011;56376;53.356;-1.748;2023-02-28T11:06:13;2.20;;;1.63;;
69256;SDS011;56376;53.356;-1.748;2023-02-28T11:08:43;3.10;;;1.43;;
69256;SDS011;56376;53.356;-1.748;2023-02-28T11:11:11;2.43;;;1.30;;
69256;SDS011;56376;53.356;-1.748;2023-02-28T11:13:36;2.10;;;1.90;;
69256;SDS011;56376;53.356;-1.748;2023-02-28T11:16:06;3.67;;;1.57;;
69256;SDS011;56376;53.356;-1.748;2023-02-28T11:18:48;1.83;;;1.60;;
69256;SDS011;56376;53.356;-1.748;2023-02-28T11:21:16;2.00;;;1.30;;
69256;SDS011;56376;53.356;-1.748;2023-02-28T11:23:46;1.40;;;1.20;;
69256;SDS011;56376;53.356;-1.748;2023-02-28T11:26:14;2.90;;;1.20;;
69256;SDS011;56376;53.356;-1.748;2023-02-28T11:28:40;1.87;;;1.40;;
69256;SDS011;56376;53.356;-1.748;2023-02-28T11:38:53;2.17;;;1.30;;
69256;SDS011;56376;53.356;-1.748;2023-02-28T11:44:34;1.17;;;1.00;;
69256;SDS011;56376;53.356;-1.748;2023-02-28T11:47:28;1.03;;;0.80;;
69256;SDS011;56376;53.356;-1.748;2023-02-28T11:53:21;2.75;;;1.20;;
69256;SDS011;56376;53.356;-1.748;2023-02-28T11:58:42;2.03;;;1.30;;
69256;SDS011;56376;53.356;-1.748;2023-02-28T12:04:03;1.23;;;1.10;;
69256;SDS011;56376;53.356;-1.748;2023-02-28T12:09:27;1.20;;;1.00;;
69256;SDS011;56376;53.356;-1.748;2023-02-28T12:29:19;2.07;;;1.50;;
69256;SDS011;56376;53.356;-1.748;2023-02-28T12:32:09;1.37;;;1.13;;
69256;SDS011;56376;53.356;-1.748;2023-02-28T12:34:51;5.30;;;1.70;;
69256;SDS011;56376;53.356;-1.748;2023-02-28T12:37:25;2.00;;;1.60;;
69256;SDS011;56376;53.356;-1.748;2023-02-28T12:40:03;1.80;;;1.27;;
69256;SDS011;56376;53.356;-1.748;2023-02-28T12:42:42;4.27;;;1.40;;
69256;SDS011;56376;53.356;-1.748;2023-02-28T12:47:55;1.37;;;1.27;;
69256;SDS011;56376;53.356;-1.748;2023-02-28T12:50:25;1.10;;;1.00;;
69256;SDS011;56376;53.356;-1.748;2023-02-28T12:55:32;1.30;;;1.20;;
69256;SDS011;56376;53.356;-1.748;2023-02-28T12:58:12;2.07;;;1.20;;
69256;SDS011;56376;53.356;-1.748;2023-02-28T13:07:06;1.67;;;1.20;;
69256;SDS011;56376;53.356;-1.748;2023-02-28T13:09:35;1.35;;;1.00;;
69256;SDS011;56376;53.356;-1.748;2023-02-28T13:12:04;2.60;;;1.20;;
69256;SDS011;56376;53.356;-1.748;2023-02-28T13:14:38;2.30;;;1.20;;
69256;SDS011;56376;53.356;-1.748;2023-02-28T13:19:40;1.40;;;1.10;;
69256;SDS011;56376;53.356;-1.748;2023-02-28T13:22:19;1.60;;;1.00;;
69256;SDS011;56376;53.356;-1.748;2023-02-28T13:25:13;1.77;;;1.17;;
69256;SDS011;56376;53.356;-1.748;2023-02-28T13:27:49;1.83;;;1.03;;
69256;SDS011;56376;53.356;-1.748;2023-02-28T13:33:31;2.43;;;1.10;;
69256;SDS011;56376;53.356;-1.748;2023-02-28T13:36:07;1.20;;;1.07;;
69256;SDS011;56376;53.356;-1.748;2023-02-28T13:38:41;1.27;;;1.17;;
69256;SDS011;56376;53.356;-1.748;2023-02-28T13:46:34;1.60;;;1.08;;
69256;SDS011;56376;53.356;-1.748;2023-02-28T14:00:30;0.80;;;0.80;;
69256;SDS011;56376;53.356;-1.748;2023-02-28T14:03:18;1.10;;;1.00;;
69256;SDS011;56376;53.356;-1.748;2023-02-28T14:08:45;1.43;;;0.90;;
69256;SDS011;56376;53.356;-1.748;2023-02-28T14:11:59;1.10;;;1.00;;
69256;SDS011;56376;53.356;-1.748;2023-02-28T14:14:07;0.60;;;0.60;;
69256;SDS011;56376;53.356;-1.748;2023-02-28T14:16:46;0.90;;;0.90;;
69256;SDS011;56376;53.356;-1.748;2023-02-28T14:21:47;0.90;;;0.90;;
69256;SDS011;56376;53.356;-1.748;2023-02-28T14:38:43;1.73;;;1.27;;
69256;SDS011;56376;53.356;-1.748;2023-02-28T14:41:14;1.83;;;1.10;;
69256;SDS011;56376;53.356;-1.748;2023-02-28T14:43:57;1.30;;;1.20;;
69256;SDS011;56376;53.356;-1.748;2023-02-28T14:46:25;1.43;;;1.33;;
69256;SDS011;56376;53.356;-1.748;2023-02-28T14:48:58;2.63;;;1.17;;
69256;SDS011;56376;53.356;-1.748;2023-02-28T14:51:25;1.90;;;1.50;;
69256;SDS011;56376;53.356;-1.748;2023-02-28T14:53:52;1.80;;;1.37;;
69256;SDS011;56376;53.356;-1.748;2023-02-28T14:56:24;2.33;;;1.40;;
69256;SDS011;56376;53.356;-1.748;2023-02-28T14:58:55;3.03;;;1.33;;
69256;SDS011;56376;53.356;-1.748;2023-02-28T15:01:23;4.63;;;2.50;;
69256;SDS011;56376;53.356;-1.748;2023-02-28T15:04:26;2.40;;;1.10;;
69256;SDS011;56376;53.356;-1.748;2023-02-28T15:07:09;6.43;;;2.20;;
69256;SDS011;56376;53.356;-1.748;2023-02-28T15:09:39;9.30;;;3.80;;
69256;SDS011;56376;53.356;-1.748;2023-02-28T15:12:05;4.80;;;2.00;;
69256;SDS011;56376;53.356;-1.748;2023-02-28T15:14:30;3.37;;;1.10;;
69256;SDS011;56376;53.356;-1.748;2023-02-28T15:16:58;3.23;;;1.00;;
69256;SDS011;56376;53.356;-1.748;2023-02-28T15:19:31;2.27;;;1.17;;
69256;SDS011;56376;53.356;-1.748;2023-02-28T15:22:00;1.17;;;1.07;;
69256;SDS011;56376;53.356;-1.748;2023-02-28T15:24:45;2.47;;;2.27;;
69256;SDS011;56376;53.356;-1.748;2023-02-28T15:29:56;2.23;;;1.20;;
69256;SDS011;56376;53.356;-1.748;2023-02-28T15:34:49;2.03;;;1.20;;
69256;SDS011;56376;53.356;-1.748;2023-02-28T15:40:16;1.03;;;0.93;;
69256;SDS011;56376;53.356;-1.748;2023-02-28T15:43:24;1.93;;;1.00;;
69256;SDS011;56376;53.356;-1.748;2023-02-28T15:46:01;2.23;;;0.90;;
69256;SDS011;56376;53.356;-1.748;2023-02-28T15:48:42;2.00;;;1.20;;
69256;SDS011;56376;53.356;-1.748;2023-02-28T15:51:19;3.97;;;1.27;;
69256;SDS011;56376;53.356;-1.748;2023-02-28T15:53:48;1.70;;;1.00;;
69256;SDS011;56376;53.356;-1.748;2023-02-28T15:56:26;2.47;;;0.80;;
69256;SDS011;56376;53.356;-1.748;2023-02-28T15:58:57;3.23;;;1.33;;
69256;SDS011;56376;53.356;-1.748;2023-02-28T16:01:36;2.00;;;1.50;;
69256;SDS011;56376;53.356;-1.748;2023-02-28T16:04:21;1.53;;;1.17;;
69256;SDS011;56376;53.356;-1.748;2023-02-28T16:09:23;3.23;;;1.40;;
69256;SDS011;56376;53.356;-1.748;2023-02-28T16:11:49;1.40;;;1.30;;
69256;SDS011;56376;53.356;-1.748;2023-02-28T16:14:21;4.10;;;2.37;;
69256;SDS011;56376;53.356;-1.748;2023-02-28T16:17:04;5.20;;;3.17;;
69256;SDS011;56376;53.356;-1.748;2023-02-28T16:19:33;5.10;;;3.00;;
69256;SDS011;56376;53.356;-1.748;2023-02-28T16:21:59;4.23;;;2.70;;
69256;SDS011;56376;53.356;-1.748;2023-02-28T16:24:25;3.03;;;1.90;;
69256;SDS011;56376;53.356;-1.748;2023-02-28T16:26:50;2.10;;;1.90;;
69256;SDS011;56376;53.356;-1.748;2023-02-28T16:29:28;2.70;;;2.13;;
69256;SDS011;56376;53.356;-1.748;2023-02-28T16:31:56;2.67;;;1.87;;
69256;SDS011;56376;53.356;-1.748;2023-02-28T16:34:22;2.30;;;1.70;;
69256;SDS011;56376;53.356;-1.748;2023-02-28T16:36:48;1.87;;;1.50;;
69256;SDS011;56376;53.356;-1.748;2023-02-28T16:39:13;2.03;;;1.30;;
69256;SDS011;56376;53.356;-1.748;2023-02-28T16:41:41;2.60;;;2.13;;
69256;SDS011;56376;53.356;-1.748;2023-02-28T16:44:10;2.20;;;1.40;;
69256;SDS011;56376;53.356;-1.748;2023-02-28T16:46:39;1.60;;;1.40;;
69256;SDS011;56376;53.356;-1.748;2023-02-28T16:49:04;2.03;;;1.70;;
69256;SDS011;56376;53.356;-1.748;2023-02-28T16:51:34;2.03;;;1.60;;
69256;SDS011;56376;53.356;-1.748;2023-02-28T16:53:59;1.60;;;1.40;;
69256;SDS011;56376;53.356;-1.748;2023-02-28T16:56:26;2.03;;;1.60;;
69256;SDS011;56376;53.356;-1.748;2023-02-28T16:58:51;1.47;;;1.37;;
69256;SDS011;56376;53.356;-1.748;2023-02-28T17:01:20;2.13;;;1.50;;
69256;SDS011;56376;53.356;-1.748;2023-02-28T17:03:47;1.53;;;1.20;;
69256;SDS011;56376;53.356;-1.748;2023-02-28T17:06:20;1.23;;;1.13;;
69256;SDS011;56376;53.356;-1.748;2023-02-28T17:08:48;1.90;;;1.07;;
69256;SDS011;56376;53.356;-1.748;2023-02-28T17:11:15;2.30;;;1.10;;
69256;SDS011;56376;53.356;-1.748;2023-02-28T17:13:41;1.40;;;1.10;;
69256;SDS011;56376;53.356;-1.748;2023-02-28T17:16:08;1.53;;;1.30;;
69256;SDS011;56376;53.356;-1.748;2023-02-28T17:18:42;1.50;;;1.00;;
69256;SDS011;56376;53.356;-1.748;2023-02-28T17:21:14;3.17;;;1.10;;
69256;SDS011;56376;53.356;-1.748;2023-02-28T17:23:40;2.53;;;1.00;;
69256;SDS011;56376;53.356;-1.748;2023-02-28T17:26:06;1.50;;;1.40;;
69256;SDS011;56376;53.356;-1.748;2023-02-28T17:28:31;2.70;;;1.80;;
69256;SDS011;56376;53.356;-1.748;2023-02-28T17:30:57;1.30;;;1.20;;
69256;SDS011;56376;53.356;-1.748;2023-02-28T17:33:22;2.07;;;1.87;;